Time;durP1;ratioP1;P1;durP2;ratioP2;P2;SDS_P1;SDS_P2;PMS_P1;PMS_P2;Temp;Humidity;BMP_temperature;BMP_pressure;BME280_temperature;BME280_humidity;BME280_pressure;Samples;Min_cycle;Max_cycle;Signal;HPM_P1;HPM_P2
2021/11/13 00:01:01;;;;;;;85.15;30.48;;;7.60;99.90;;;;;;5054962;28;20127;-84
2021/11/13 00:03:27;;;;;;;95.70;30.20;;;7.60;99.90;;;;;;5069589;28;20079;-84
2021/11/13 00:05:54;;;;;;;84.70;29.33;;;7.60;99.90;;;;;;5071477;28;20440;-84
2021/11/13 00:08:21;;;;;;;91.93;29.27;;;7.60;99.90;;;;;;5071819;28;20083;-84
2021/11/13 00:10:48;;;;;;;83.38;28.27;;;7.60;99.90;;;;;;5060294;28;20047;-84
2021/11/13 00:13:15;;;;;;;83.20;27.77;;;7.60;99.90;;;;;;5051961;28;20049;-84
2021/11/13 00:15:42;;;;;;;87.70;29.25;;;7.60;99.90;;;;;;5051717;28;20076;-84
2021/11/13 00:18:10;;;;;;;93.80;29.73;;;7.50;99.90;;;;;;5064164;28;20048;-84
2021/11/13 00:20:37;;;;;;;95.57;30.52;;;7.50;99.90;;;;;;5071479;28;20106;-84
2021/11/13 00:23:04;;;;;;;92.35;30.77;;;7.50;99.90;;;;;;5072001;28;20066;-84
2021/11/13 00:25:31;;;;;;;96.80;31.05;;;7.50;99.90;;;;;;5044790;28;20099;-84
2021/11/13 00:27:58;;;;;;;86.95;28.85;;;7.40;99.90;;;;;;5051515;28;20144;-84
2021/11/13 00:30:25;;;;;;;83.93;28.73;;;7.40;99.90;;;;;;5033643;28;20128;-84
2021/11/13 00:32:52;;;;;;;97.20;32.22;;;7.40;99.90;;;;;;5070503;28;20128;-84
2021/11/13 00:35:19;;;;;;;96.22;30.15;;;7.40;99.90;;;;;;5071553;28;20083;-84
2021/11/13 00:37:46;;;;;;;88.72;29.35;;;7.40;99.90;;;;;;5071348;28;20091;-84
2021/11/13 00:40:15;;;;;;;93.93;31.38;;;7.40;99.90;;;;;;5064399;28;20057;-84
2021/11/13 00:42:42;;;;;;;93.63;29.75;;;7.40;99.90;;;;;;5051739;28;20088;-84
2021/11/13 00:45:10;;;;;;;93.80;29.85;;;7.40;99.90;;;;;;5060976;28;20454;-84
2021/11/13 00:47:37;;;;;;;91.15;30.48;;;7.30;99.90;;;;;;5065130;28;20135;-84
2021/11/13 00:50:06;;;;;;;85.85;29.55;;;7.30;99.90;;;;;;5071112;28;20058;-84
2021/11/13 00:52:34;;;;;;;93.03;31.90;;;7.30;99.90;;;;;;5071543;28;20080;-84
2021/11/13 00:55:01;;;;;;;96.60;31.80;;;7.30;99.90;;;;;;5071323;28;20072;-84
2021/11/13 00:57:30;;;;;;;87.85;31.15;;;7.30;99.90;;;;;;5074549;28;20127;-84
2021/11/13 00:59:56;;;;;;;91.20;33.38;;;7.20;99.90;;;;;;5070426;28;20084;-84
2021/11/13 01:02:23;;;;;;;90.80;31.08;;;7.20;99.90;;;;;;5069992;28;20136;-84
2021/11/13 01:04:50;;;;;;;82.20;30.10;;;7.10;99.90;;;;;;5075160;28;20099;-84
2021/11/13 01:07:17;;;;;;;98.43;33.17;;;7.10;99.90;;;;;;5075329;28;20492;-84
2021/11/13 01:09:43;;;;;;;102.07;33.47;;;7.00;99.90;;;;;;5074324;28;20126;-84
2021/11/13 01:12:10;;;;;;;91.18;32.08;;;6.90;99.90;;;;;;5074903;28;20048;-84
2021/11/13 01:14:40;;;;;;;100.60;30.83;;;6.90;99.90;;;;;;5075188;28;20132;-84
2021/11/13 01:17:12;;;;;;;98.95;32.83;;;6.90;99.90;;;;;;5074884;28;20044;-84
2021/11/13 01:19:41;;;;;;;99.75;32.47;;;6.90;99.90;;;;;;5057054;28;20049;-84
2021/11/13 01:22:09;;;;;;;99.47;33.08;;;6.80;99.90;;;;;;5074805;28;20050;-84
2021/11/13 01:24:36;;;;;;;107.00;34.00;;;6.80;99.90;;;;;;5071947;28;20080;-84
2021/11/13 01:27:05;;;;;;;107.05;32.03;;;6.80;99.90;;;;;;5056363;28;20071;-84
2021/11/13 01:29:32;;;;;;;98.40;30.95;;;6.80;99.90;;;;;;5074441;28;20564;-84
2021/11/13 01:31:59;;;;;;;103.20;32.45;;;6.80;99.90;;;;;;5073799;28;20079;-84
2021/11/13 01:34:25;;;;;;;98.65;32.88;;;6.80;99.90;;;;;;5068877;28;20136;-84
2021/11/13 01:36:52;;;;;;;101.35;32.50;;;6.70;99.90;;;;;;5074190;28;20119;-84
2021/11/13 01:39:19;;;;;;;90.63;33.42;;;6.70;99.90;;;;;;5074690;28;20087;-84
2021/11/13 01:41:48;;;;;;;94.90;32.83;;;6.70;99.90;;;;;;5074242;28;20048;-84
2021/11/13 01:44:15;;;;;;;89.65;33.60;;;6.70;99.90;;;;;;5074366;28;20049;-84
2021/11/13 01:46:42;;;;;;;99.10;32.05;;;6.70;99.90;;;;;;5042269;28;20119;-84
2021/11/13 01:49:09;;;;;;;102.75;32.08;;;6.70;99.90;;;;;;5074309;28;20076;-84
2021/11/13 01:51:36;;;;;;;91.95;31.55;;;6.70;99.90;;;;;;5074078;28;20770;-84
2021/11/13 01:54:07;;;;;;;99.32;33.55;;;6.70;99.90;;;;;;5074289;28;20620;-84
2021/11/13 01:56:35;;;;;;;94.45;31.52;;;6.70;99.90;;;;;;5074940;28;20052;-85
2021/11/13 01:59:04;;;;;;;95.65;32.40;;;6.70;99.90;;;;;;5073736;28;20059;-84
2021/11/13 02:01:30;;;;;;;95.25;32.08;;;6.70;99.90;;;;;;5064303;28;20109;-84
2021/11/13 02:03:58;;;;;;;100.50;34.50;;;6.60;99.90;;;;;;5072953;28;20084;-84
2021/11/13 02:06:26;;;;;;;93.80;31.88;;;6.60;99.90;;;;;;5056007;28;20498;-84
2021/11/13 02:08:53;;;;;;;92.35;33.13;;;6.60;99.90;;;;;;5073112;28;20048;-84
2021/11/13 02:11:23;;;;;;;93.28;32.70;;;6.60;99.90;;;;;;5055999;28;20560;-84
2021/11/13 02:13:51;;;;;;;103.40;33.45;;;6.50;99.90;;;;;;5073678;28;20086;-84
2021/11/13 02:16:18;;;;;;;106.75;32.53;;;6.50;99.90;;;;;;5073927;28;20106;-84
2021/11/13 02:18:45;;;;;;;96.90;32.35;;;6.50;99.90;;;;;;5072436;28;20048;-84
2021/11/13 02:21:12;;;;;;;112.70;34.58;;;6.50;99.90;;;;;;5074009;28;20470;-84
2021/11/13 02:23:40;;;;;;;106.53;34.28;;;6.50;99.90;;;;;;5074214;28;20049;-84
2021/11/13 02:26:07;;;;;;;95.65;32.45;;;6.50;99.90;;;;;;5059650;28;20141;-84
2021/11/13 02:28:36;;;;;;;108.07;33.70;;;6.50;99.90;;;;;;5053766;28;20088;-84
2021/11/13 02:31:06;;;;;;;103.18;33.20;;;6.40;99.90;;;;;;5057042;28;20052;-83
2021/11/13 02:33:33;;;;;;;101.75;34.05;;;6.40;99.90;;;;;;5056044;28;20076;-84
2021/11/13 02:36:01;;;;;;;103.15;32.15;;;6.40;99.90;;;;;;5055503;28;20131;-84
2021/11/13 02:38:35;;;;;;;99.88;31.25;;;6.40;99.90;;;;;;5053255;28;20468;-84
2021/11/13 02:41:06;;;;;;;96.38;33.03;;;6.40;99.90;;;;;;5052812;28;20206;-84
2021/11/13 02:43:34;;;;;;;92.32;32.03;;;6.40;99.90;;;;;;5054452;28;20087;-84
2021/11/13 02:46:04;;;;;;;96.25;32.20;;;6.40;99.90;;;;;;5055467;28;20140;-84
2021/11/13 02:48:34;;;;;;;101.32;32.88;;;6.40;99.90;;;;;;5068497;28;20442;-84
2021/11/13 02:51:03;;;;;;;96.50;30.85;;;6.40;99.90;;;;;;5072023;28;20135;-84
2021/11/13 02:53:30;;;;;;;97.78;29.90;;;6.40;99.90;;;;;;5051626;28;20048;-84
2021/11/13 02:55:57;;;;;;;101.97;33.42;;;6.30;99.90;;;;;;5053179;28;20041;-85
2021/11/13 02:58:25;;;;;;;106.65;32.25;;;6.30;99.90;;;;;;5035751;28;20119;-85
2021/11/13 03:00:55;;;;;;;99.22;33.17;;;6.30;99.90;;;;;;5055356;28;20099;-84
2021/11/13 03:03:23;;;;;;;92.05;30.90;;;6.30;99.90;;;;;;5068408;28;20041;-84
2021/11/13 03:05:56;;;;;;;99.38;33.17;;;6.30;99.90;;;;;;5052902;28;20127;-84
2021/11/13 03:08:29;;;;;;;95.82;33.17;;;6.30;99.90;;;;;;5052776;28;20497;-84
2021/11/13 03:10:58;;;;;;;97.72;30.75;;;6.40;99.90;;;;;;5068708;28;20076;-84
2021/11/13 03:13:26;;;;;;;96.93;30.83;;;6.30;99.90;;;;;;5072788;28;20088;-84
2021/11/13 03:15:53;;;;;;;92.97;31.42;;;6.30;99.90;;;;;;5057698;28;20046;-84
2021/11/13 03:18:20;;;;;;;101.13;32.22;;;6.30;99.90;;;;;;5070392;28;20163;-84
2021/11/13 03:20:48;;;;;;;104.63;33.90;;;6.30;99.90;;;;;;5071288;28;20083;-83
2021/11/13 03:23:16;;;;;;;95.38;30.58;;;6.30;99.90;;;;;;5072191;28;20127;-84
2021/11/13 03:25:54;;;;;;;104.07;34.15;;;6.30;99.90;;;;;;5072611;28;20091;-84
2021/11/13 03:28:24;;;;;;;100.13;31.15;;;6.30;99.90;;;;;;5072693;28;20064;-84
2021/11/13 03:30:50;;;;;;;99.47;32.38;;;6.30;99.90;;;;;;5069105;28;20128;-84
2021/11/13 03:33:18;;;;;;;110.15;35.00;;;6.30;99.90;;;;;;5072419;28;20044;-84
2021/11/13 03:35:45;;;;;;;107.53;34.85;;;6.30;99.90;;;;;;5057531;28;20052;-84
2021/11/13 03:38:15;;;;;;;104.50;33.92;;;6.30;99.90;;;;;;5052850;28;20051;-84
2021/11/13 03:40:44;;;;;;;93.63;31.02;;;6.30;99.90;;;;;;5065550;28;20141;-84
2021/11/13 03:43:13;;;;;;;98.18;30.55;;;6.30;99.90;;;;;;5054310;28;20092;-84
2021/11/13 03:45:42;;;;;;;104.03;32.38;;;6.30;99.90;;;;;;5071313;28;20467;-84
2021/11/13 03:48:08;;;;;;;100.15;32.17;;;6.30;99.90;;;;;;5072011;28;20084;-84
2021/11/13 03:50:35;;;;;;;103.20;32.95;;;6.30;99.90;;;;;;5071577;28;20131;-84
2021/11/13 03:53:04;;;;;;;99.05;31.63;;;6.40;99.90;;;;;;5072018;28;20119;-84
2021/11/13 03:55:34;;;;;;;99.13;30.73;;;6.30;99.90;;;;;;5041677;28;20080;-84
2021/11/13 03:58:01;;;;;;;99.57;31.13;;;6.30;99.90;;;;;;5058669;28;20136;-84
2021/11/13 04:00:29;;;;;;;102.22;31.40;;;6.30;99.90;;;;;;5053829;28;20127;-84
2021/11/13 04:02:56;;;;;;;105.88;32.40;;;6.20;99.90;;;;;;5071864;28;20449;-84
2021/11/13 04:05:23;;;;;;;107.18;32.63;;;6.20;99.90;;;;;;5071959;28;20087;-84
2021/11/13 04:07:50;;;;;;;93.60;30.88;;;6.20;99.90;;;;;;5072211;28;20143;-84
2021/11/13 04:10:18;;;;;;;95.07;30.00;;;6.20;99.90;;;;;;5060681;28;20260;-84
2021/11/13 04:12:45;;;;;;;96.75;30.35;;;6.20;99.90;;;;;;5051655;28;20048;-84
2021/11/13 04:15:13;;;;;;;93.32;31.05;;;6.20;99.90;;;;;;5060981;28;20131;-85
2021/11/13 04:17:41;;;;;;;114.65;32.47;;;6.20;99.90;;;;;;5071619;28;20083;-84
2021/11/13 04:20:09;;;;;;;102.22;31.00;;;6.20;99.90;;;;;;5071442;28;20082;-84
2021/11/13 04:22:36;;;;;;;96.13;29.80;;;6.20;99.90;;;;;;5072032;28;20770;-84
2021/11/13 04:25:04;;;;;;;101.68;31.10;;;6.20;99.90;;;;;;5071560;28;20139;-84
2021/11/13 04:27:31;;;;;;;101.00;31.38;;;6.20;99.90;;;;;;5053144;28;20131;-84
2021/11/13 04:29:58;;;;;;;93.82;30.63;;;6.20;99.90;;;;;;5063497;28;20051;-84
2021/11/13 04:32:29;;;;;;;93.25;30.23;;;6.20;99.90;;;;;;5069426;28;20106;-84
2021/11/13 04:37:27;;;;;;;95.18;30.35;;;6.20;99.90;;;;;;5075790;28;20068;-84
2021/11/13 04:39:54;;;;;;;99.35;31.30;;;6.20;99.90;;;;;;5071899;28;20075;-84
2021/11/13 04:42:21;;;;;;;97.13;29.98;;;6.20;99.90;;;;;;5055600;28;20091;-84
2021/11/13 04:44:49;;;;;;;103.00;31.77;;;6.10;99.90;;;;;;5060714;28;20127;-84
2021/11/13 04:47:17;;;;;;;100.03;30.38;;;6.10;99.90;;;;;;5075644;28;20131;-84
2021/11/13 04:49:43;;;;;;;91.28;29.50;;;6.10;99.90;;;;;;5074532;28;20086;-84
2021/11/13 04:52:10;;;;;;;86.25;28.38;;;6.00;99.90;;;;;;5075095;28;20799;-84
2021/11/13 04:54:39;;;;;;;91.18;29.42;;;6.00;99.90;;;;;;5074523;28;20071;-83
2021/11/13 04:57:07;;;;;;;90.93;27.15;;;6.00;99.90;;;;;;5075170;28;20052;-84
2021/11/13 04:59:33;;;;;;;83.57;27.23;;;6.00;99.90;;;;;;5074864;28;20144;-83
2021/11/13 05:02:01;;;;;;;89.90;28.30;;;6.00;99.90;;;;;;5074987;28;20471;-83
2021/11/13 05:04:28;;;;;;;104.05;28.67;;;6.00;99.90;;;;;;5075294;28;20075;-83
2021/11/13 05:06:54;;;;;;;92.45;28.05;;;6.00;99.90;;;;;;5075017;28;20140;-83
2021/11/13 05:09:21;;;;;;;97.57;30.45;;;6.00;99.90;;;;;;5071995;28;20132;-83
2021/11/13 05:11:48;;;;;;;108.22;30.67;;;6.00;99.90;;;;;;5055203;28;20083;-84
2021/11/13 05:14:15;;;;;;;105.10;35.33;;;6.00;99.90;;;;;;5054881;28;20044;-84
2021/11/13 05:16:41;;;;;;;102.15;30.10;;;6.00;99.90;;;;;;5059119;28;20486;-84
2021/11/13 05:19:09;;;;;;;105.32;31.88;;;6.00;99.90;;;;;;5074461;28;20102;-85
2021/11/13 05:21:39;;;;;;;110.20;31.92;;;6.00;99.90;;;;;;5057044;28;20056;-84
2021/11/13 05:24:06;;;;;;;90.93;29.67;;;6.00;99.90;;;;;;5074760;28;20048;-83
2021/11/13 05:26:32;;;;;;;109.25;32.35;;;6.00;99.90;;;;;;5074723;28;20057;-83
2021/11/13 05:29:03;;;;;;;98.65;28.85;;;6.00;99.90;;;;;;5057083;28;20400;-83
2021/11/13 05:31:29;;;;;;;94.68;30.13;;;6.00;99.90;;;;;;5044007;28;20087;-83
2021/11/13 05:33:56;;;;;;;96.57;28.52;;;6.00;99.90;;;;;;5074392;28;20128;-83
2021/11/13 05:36:23;;;;;;;104.07;31.52;;;5.90;99.90;;;;;;5074504;28;20079;-83
2021/11/13 05:38:49;;;;;;;92.03;30.35;;;6.00;99.90;;;;;;5074172;28;20121;-83
2021/11/13 05:41:16;;;;;;;101.28;28.83;;;6.00;99.90;;;;;;5074705;28;20127;-83
2021/11/13 05:43:48;;;;;;;98.68;29.63;;;6.00;99.90;;;;;;5056644;28;20116;-83
2021/11/13 05:46:15;;;;;;;106.97;31.23;;;6.00;99.90;;;;;;5070325;28;20088;-83
2021/11/13 05:48:43;;;;;;;101.03;29.30;;;6.00;99.90;;;;;;5074081;28;20771;-83
2021/11/13 05:51:09;;;;;;;93.47;28.73;;;6.00;99.90;;;;;;5055714;28;20048;-83
2021/11/13 05:53:36;;;;;;;85.60;27.67;;;6.00;99.90;;;;;;5054164;28;20081;-83
2021/11/13 05:56:03;;;;;;;85.88;27.85;;;6.00;99.90;;;;;;5069765;28;20123;-83
2021/11/13 05:58:37;;;;;;;80.20;27.05;;;6.00;99.90;;;;;;5064086;28;20052;-83
2021/11/13 06:01:04;;;;;;;85.80;26.55;;;6.00;99.90;;;;;;5058269;28;20053;-83
2021/11/13 06:03:30;;;;;;;91.30;26.85;;;5.90;99.90;;;;;;5073801;28;20568;-83
2021/11/13 06:05:58;;;;;;;84.35;26.02;;;6.00;99.90;;;;;;5040636;28;20124;-83
2021/11/13 06:08:25;;;;;;;90.93;29.40;;;6.00;99.90;;;;;;5052794;28;20080;-83
2021/11/13 06:10:52;;;;;;;79.78;25.95;;;6.00;99.90;;;;;;5034218;28;20053;-83
2021/11/13 06:13:18;;;;;;;84.13;27.88;;;6.00;99.90;;;;;;5034533;28;20230;-83
2021/11/13 06:15:45;;;;;;;95.25;29.23;;;6.00;99.90;;;;;;5064750;28;20132;-83
2021/11/13 06:18:12;;;;;;;93.43;28.40;;;6.00;99.90;;;;;;5071549;28;20084;-83
2021/11/13 06:20:38;;;;;;;93.85;29.15;;;6.00;99.90;;;;;;5073567;28;20080;-83
2021/11/13 06:23:05;;;;;;;96.32;27.35;;;6.00;99.90;;;;;;5074153;28;20084;-84
2021/11/13 06:25:32;;;;;;;100.13;30.40;;;6.00;99.90;;;;;;5073554;28;20493;-83
2021/11/13 06:27:58;;;;;;;96.72;30.27;;;6.10;99.90;;;;;;5073973;28;20044;-84
2021/11/13 06:30:28;;;;;;;102.68;30.58;;;6.10;99.90;;;;;;5072885;28;20084;-84
2021/11/13 06:32:55;;;;;;;112.80;33.35;;;6.10;99.90;;;;;;5062978;28;20049;-84
2021/11/13 06:35:24;;;;;;;100.30;30.38;;;6.10;99.90;;;;;;5064860;28;20124;-84
2021/11/13 06:37:51;;;;;;;108.32;31.17;;;6.10;99.90;;;;;;5053920;28;20076;-83
2021/11/13 06:40:18;;;;;;;101.55;29.83;;;6.10;99.90;;;;;;5053800;28;20119;-83
2021/11/13 06:42:45;;;;;;;95.45;30.83;;;6.10;99.90;;;;;;5053855;28;20083;-83
2021/11/13 06:45:12;;;;;;;95.07;28.88;;;6.00;99.90;;;;;;5059996;28;20094;-84
2021/11/13 06:47:40;;;;;;;95.03;29.50;;;6.00;99.90;;;;;;5073556;28;20094;-83
2021/11/13 06:50:09;;;;;;;90.05;29.58;;;6.00;99.90;;;;;;5072756;28;20493;-83
2021/11/13 06:52:36;;;;;;;95.03;29.83;;;6.00;99.90;;;;;;5055397;28;20049;-84
2021/11/13 06:55:05;;;;;;;95.30;28.67;;;6.00;99.90;;;;;;5048275;28;20116;-83
2021/11/13 06:57:33;;;;;;;94.95;28.67;;;6.00;99.90;;;;;;5052277;28;20073;-83
2021/11/13 06:59:59;;;;;;;96.55;29.67;;;6.00;99.90;;;;;;5053173;28;20131;-83
2021/11/13 07:02:26;;;;;;;96.32;28.60;;;6.00;99.90;;;;;;5050648;28;20053;-83
2021/11/13 07:04:53;;;;;;;97.07;29.70;;;6.00;99.90;;;;;;5069997;28;20091;-83
2021/11/13 07:07:20;;;;;;;87.55;27.35;;;6.10;99.90;;;;;;5052796;28;20052;-83
2021/11/13 07:09:46;;;;;;;93.50;27.35;;;6.10;99.90;;;;;;5052659;28;20099;-83
2021/11/13 07:12:13;;;;;;;93.82;29.48;;;6.10;99.90;;;;;;5052683;28;20076;-83
2021/11/13 07:14:40;;;;;;;101.82;30.60;;;6.10;99.90;;;;;;5056757;28;20123;-83
2021/11/13 07:17:07;;;;;;;103.68;28.77;;;6.10;99.90;;;;;;5060881;28;20056;-83
2021/11/13 07:19:34;;;;;;;106.20;31.02;;;6.10;99.90;;;;;;5072942;28;20098;-84
2021/11/13 07:22:01;;;;;;;99.10;29.02;;;6.10;99.90;;;;;;5072024;28;20128;-83
2021/11/13 07:24:28;;;;;;;96.57;29.75;;;6.10;99.90;;;;;;5072433;28;20094;-84
2021/11/13 07:26:55;;;;;;;97.03;28.67;;;6.00;99.90;;;;;;5072342;28;20049;-83
2021/11/13 07:29:25;;;;;;;96.95;28.08;;;6.10;99.90;;;;;;5072332;28;20106;-83
2021/11/13 07:31:52;;;;;;;90.78;26.90;;;6.10;99.90;;;;;;5072410;28;20452;-84
2021/11/13 07:34:19;;;;;;;93.80;29.27;;;6.10;99.90;;;;;;5072691;28;20123;-84
2021/11/13 07:36:46;;;;;;;95.57;29.30;;;6.10;99.90;;;;;;5054793;28;20053;-83
2021/11/13 07:39:13;;;;;;;86.90;27.45;;;6.20;99.90;;;;;;5052754;28;20583;-83
2021/11/13 07:41:40;;;;;;;100.65;30.20;;;6.20;99.90;;;;;;5052282;28;20052;-83
2021/11/13 07:44:07;;;;;;;85.93;27.35;;;6.30;99.90;;;;;;5052475;28;20059;-83
2021/11/13 07:46:34;;;;;;;98.50;29.42;;;6.30;99.90;;;;;;5055617;28;20080;-83
2021/11/13 07:49:02;;;;;;;89.18;27.55;;;6.30;99.90;;;;;;5071616;28;20531;-83
2021/11/13 07:51:28;;;;;;;95.55;28.90;;;6.30;99.90;;;;;;5052166;28;20045;-83
2021/11/13 07:53:55;;;;;;;91.90;28.85;;;6.30;99.90;;;;;;5052419;28;20119;-83
2021/11/13 07:56:22;;;;;;;97.13;28.05;;;6.40;99.90;;;;;;5052144;28;20123;-83
2021/11/13 07:58:49;;;;;;;98.88;29.40;;;6.40;99.90;;;;;;5052183;28;20128;-84
2021/11/13 08:01:22;;;;;;;87.68;26.70;;;6.50;99.90;;;;;;5070676;28;20045;-84
2021/11/13 08:03:49;;;;;;;88.95;28.02;;;6.50;99.90;;;;;;5071718;28;20048;-83
2021/11/13 08:06:16;;;;;;;85.10;27.85;;;6.60;99.90;;;;;;5052420;28;20768;-84
2021/11/13 08:08:42;;;;;;;88.75;28.95;;;6.60;99.90;;;;;;5051719;28;20136;-83
2021/11/13 08:11:09;;;;;;;84.80;28.80;;;6.60;99.90;;;;;;5068208;28;20087;-83
2021/11/13 08:13:39;;;;;;;89.68;28.23;;;6.60;99.90;;;;;;5033878;28;20553;-83
2021/11/13 08:16:06;;;;;;;94.45;28.88;;;6.60;99.90;;;;;;5034216;28;20135;-83
2021/11/13 08:18:33;;;;;;;84.63;26.92;;;6.70;99.90;;;;;;5045587;28;20119;-84
2021/11/13 08:21:00;;;;;;;90.70;28.98;;;6.80;99.90;;;;;;5037687;28;20045;-83
2021/11/13 08:23:27;;;;;;;90.93;29.40;;;6.80;99.90;;;;;;5065358;28;20131;-83
2021/11/13 08:25:55;;;;;;;87.78;27.38;;;6.90;99.90;;;;;;5072130;28;20476;-83
2021/11/13 08:28:22;;;;;;;83.20;27.13;;;7.00;99.90;;;;;;5059213;28;20052;-83
2021/11/13 08:30:50;;;;;;;82.68;28.20;;;7.20;99.90;;;;;;5053886;28;20174;-83
2021/11/13 08:33:18;;;;;;;89.93;29.23;;;7.30;99.90;;;;;;5071518;28;20120;-83
2021/11/13 08:35:46;;;;;;;92.72;28.27;;;7.30;99.90;;;;;;5071821;28;20078;-83
2021/11/13 08:38:16;;;;;;;85.38;26.33;;;7.30;99.90;;;;;;5071927;28;20072;-83
2021/11/13 08:40:43;;;;;;;84.45;26.83;;;7.20;99.90;;;;;;5071546;28;20640;-83
2021/11/13 08:43:13;;;;;;;85.75;25.67;;;7.20;99.90;;;;;;5071846;28;20056;-83
2021/11/13 08:45:40;;;;;;;78.13;28.17;;;7.20;99.90;;;;;;5053748;28;20140;-84
2021/11/13 08:48:08;;;;;;;87.88;26.88;;;7.20;99.90;;;;;;5071316;28;20127;-83
2021/11/13 08:50:35;;;;;;;78.65;27.00;;;7.30;99.90;;;;;;5070991;28;20472;-83
2021/11/13 08:53:04;;;;;;;84.25;27.30;;;7.20;99.90;;;;;;5053657;28;20083;-82
2021/11/13 08:55:33;;;;;;;77.78;26.10;;;7.20;99.90;;;;;;5058809;28;20048;-83
2021/11/13 08:58:01;;;;;;;85.72;26.33;;;7.20;99.90;;;;;;5051623;28;20097;-84
2021/11/13 09:00:32;;;;;;;84.38;27.63;;;7.20;99.90;;;;;;5051347;28;20131;-83
2021/11/13 09:03:02;;;;;;;75.95;25.17;;;7.20;99.90;;;;;;5053565;28;20075;-83
2021/11/13 09:05:29;;;;;;;77.00;25.40;;;7.30;99.90;;;;;;5059358;28;20128;-83
2021/11/13 09:07:59;;;;;;;74.65;25.10;;;7.20;99.90;;;;;;5033952;28;20088;-83
2021/11/13 09:10:29;;;;;;;73.32;26.30;;;7.30;99.90;;;;;;5033338;28;20108;-83
2021/11/13 09:12:57;;;;;;;64.95;24.35;;;7.20;99.90;;;;;;5051325;28;20088;-84
2021/11/13 09:15:29;;;;;;;68.80;23.95;;;7.20;99.90;;;;;;5051102;28;20159;-84
2021/11/13 09:17:56;;;;;;;76.72;24.77;;;7.20;99.90;;;;;;5049773;28;20088;-84
2021/11/13 09:20:24;;;;;;;71.72;23.63;;;7.20;99.90;;;;;;5060588;28;20450;-84
2021/11/13 09:22:51;;;;;;;65.35;23.48;;;7.30;99.90;;;;;;5055327;28;20479;-84
2021/11/13 09:25:18;;;;;;;71.10;24.30;;;7.40;99.90;;;;;;5055015;28;20088;-83
2021/11/13 09:27:46;;;;;;;65.82;22.85;;;7.50;99.90;;;;;;5037167;28;20466;-84
2021/11/13 09:30:21;;;;;;;61.00;22.40;;;7.70;99.90;;;;;;5063087;28;20135;-84
2021/11/13 09:32:48;;;;;;;62.20;22.38;;;7.80;99.90;;;;;;5074785;28;20044;-84
2021/11/13 09:35:17;;;;;;;68.22;24.38;;;8.10;99.90;;;;;;5074777;28;20083;-84
2021/11/13 09:37:46;;;;;;;64.43;23.50;;;8.40;99.90;;;;;;5074376;28;20049;-84
2021/11/13 09:40:16;;;;;;;64.25;25.08;;;8.80;99.90;;;;;;5066204;28;20652;-84
2021/11/13 09:42:45;;;;;;;57.80;22.92;;;9.10;99.90;;;;;;5037029;28;20084;-84
2021/11/13 09:45:12;;;;;;;68.65;24.70;;;9.30;99.90;;;;;;5055061;28;20102;-84
2021/11/13 09:47:41;;;;;;;59.15;22.02;;;9.30;99.90;;;;;;5061918;28;20079;-84
2021/11/13 09:50:08;;;;;;;62.10;23.00;;;9.10;99.90;;;;;;5074190;28;20080;-84
2021/11/13 09:52:36;;;;;;;65.70;23.42;;;9.00;99.90;;;;;;5074560;28;20128;-84
2021/11/13 09:55:06;;;;;;;63.13;23.35;;;8.80;99.90;;;;;;5056680;28;20056;-84
2021/11/13 09:57:37;;;;;;;61.58;23.27;;;8.70;99.90;;;;;;5074327;28;20044;-84
2021/11/13 10:00:11;;;;;;;63.67;22.45;;;8.70;99.90;;;;;;5067464;28;20041;-85
2021/11/13 10:02:38;;;;;;;61.42;23.25;;;8.70;99.90;;;;;;5071059;28;20131;-84
2021/11/13 10:05:05;;;;;;;65.03;23.75;;;8.70;99.90;;;;;;5074183;28;20044;-84
2021/11/13 10:07:33;;;;;;;60.80;22.23;;;8.50;99.90;;;;;;5074040;28;20075;-84
2021/11/13 10:10:00;;;;;;;53.42;21.70;;;8.50;99.90;;;;;;5065720;28;20076;-83
2021/11/13 10:12:40;;;;;;;55.97;20.13;;;8.40;99.90;;;;;;5074048;28;20054;-83
2021/11/13 10:15:38;;;;;;;58.55;21.52;;;8.40;99.90;;;;;;5073087;28;20131;-83
2021/11/13 10:18:12;;;;;;;55.63;21.15;;;8.40;99.90;;;;;;5072958;28;20036;-83
2021/11/13 10:21:05;;;;;;;56.15;23.08;;;8.50;99.90;;;;;;5073546;28;20740;-83
2021/11/13 10:23:42;;;;;;;58.00;22.42;;;8.60;99.90;;;;;;5073721;28;20896;-83
2021/11/13 10:26:24;;;;;;;50.30;21.73;;;8.50;99.90;;;;;;5057089;28;20048;-83
2021/11/13 10:28:50;;;;;;;48.05;20.00;;;8.50;99.90;;;;;;5052956;28;20099;-83
2021/11/13 10:31:21;;;;;;;48.85;19.77;;;8.60;99.90;;;;;;5059386;28;20045;-83
2021/11/13 10:33:50;;;;;;;50.40;20.15;;;8.60;99.90;;;;;;5073362;28;20048;-83
2021/11/13 10:36:43;;;;;;;52.75;21.00;;;8.60;99.90;;;;;;5037125;28;20393;-84
2021/11/13 10:39:13;;;;;;;48.25;20.33;;;8.70;99.90;;;;;;5054485;28;20073;-84
2021/11/13 10:41:57;;;;;;;45.70;19.13;;;8.70;99.90;;;;;;5073474;28;20150;-84
2021/11/13 10:44:41;;;;;;;51.33;21.58;;;8.70;99.90;;;;;;5070208;28;20041;-84
2021/11/13 10:47:28;;;;;;;49.17;20.73;;;8.80;99.90;;;;;;5062236;28;20128;-84
2021/11/13 10:50:24;;;;;;;45.65;20.55;;;8.80;99.90;;;;;;5072391;28;20068;-84
2021/11/13 10:53:12;;;;;;;51.28;20.95;;;8.90;99.90;;;;;;5073207;28;20132;-83
2021/11/13 10:55:40;;;;;;;46.22;19.67;;;9.30;99.90;;;;;;5046345;28;20049;-85
2021/11/13 10:58:29;;;;;;;41.08;19.35;;;9.70;99.90;;;;;;5053362;28;20076;-84
2021/11/13 11:01:02;;;;;;;48.88;20.75;;;10.20;99.90;;;;;;5068104;28;20459;-83
2021/11/13 11:03:34;;;;;;;48.33;20.42;;;10.40;99.90;;;;;;5072968;28;20101;-83
2021/11/13 11:06:01;;;;;;;45.33;20.48;;;10.30;99.90;;;;;;5053514;28;20080;-83
2021/11/13 11:08:30;;;;;;;37.63;18.30;;;10.10;99.90;;;;;;5049888;28;20127;-83
2021/11/13 11:10:58;;;;;;;46.25;19.88;;;10.00;99.90;;;;;;5060128;28;20144;-83
2021/11/13 11:13:48;;;;;;;45.55;20.90;;;9.80;99.90;;;;;;5072520;28;20090;-84
2021/11/13 11:16:22;;;;;;;47.97;20.05;;;9.80;99.90;;;;;;5056595;28;20081;-84
2021/11/13 11:18:54;;;;;;;43.28;18.58;;;9.80;99.90;;;;;;5072371;28;20055;-84
2021/11/13 11:21:41;;;;;;;45.63;19.58;;;9.70;99.90;;;;;;5053527;28;20072;-83
2021/11/13 11:24:28;;;;;;;43.67;18.88;;;9.70;99.90;;;;;;5052433;28;20084;-84
2021/11/13 11:26:56;;;;;;;47.65;20.63;;;9.60;99.90;;;;;;5042626;28;20099;-83
2021/11/13 11:29:23;;;;;;;44.67;21.25;;;9.50;99.90;;;;;;5052560;28;20122;-83
2021/11/13 11:31:55;;;;;;;48.33;19.63;;;9.50;99.90;;;;;;5044771;28;20127;-83
2021/11/13 11:34:37;;;;;;;43.15;19.52;;;9.30;99.90;;;;;;5069114;28;20120;-83
2021/11/13 11:37:15;;;;;;;42.60;18.48;;;9.30;99.90;;;;;;5053516;28;20387;-83
2021/11/13 11:39:44;;;;;;;45.92;18.45;;;9.20;99.90;;;;;;5052360;28;20528;-83
2021/11/13 11:42:11;;;;;;;44.17;20.27;;;9.20;99.90;;;;;;5051540;28;20390;-83
2021/11/13 11:44:40;;;;;;;45.63;19.85;;;9.20;99.90;;;;;;5052508;28;20140;-83
2021/11/13 11:47:10;;;;;;;51.70;20.45;;;9.10;99.90;;;;;;5059829;28;20465;-84
2021/11/13 11:49:40;;;;;;;46.35;20.25;;;9.10;99.90;;;;;;5071919;28;20098;-83
2021/11/13 11:52:08;;;;;;;47.35;20.20;;;9.10;99.90;;;;;;5072220;28;20095;-83
2021/11/13 11:54:35;;;;;;;50.83;20.52;;;9.00;99.90;;;;;;5072543;28;20072;-83
2021/11/13 11:57:02;;;;;;;43.42;18.42;;;9.00;99.90;;;;;;5072522;28;20536;-83
2021/11/13 11:59:31;;;;;;;45.40;20.20;;;9.10;99.90;;;;;;5068078;28;20045;-83
2021/11/13 12:02:07;;;;;;;45.30;19.13;;;9.00;99.90;;;;;;5063563;28;20795;-83
2021/11/13 12:04:34;;;;;;;45.78;18.50;;;9.10;99.90;;;;;;5054698;28;20059;-83
2021/11/13 12:07:03;;;;;;;49.08;20.17;;;9.00;99.90;;;;;;5054114;28;20084;-83
2021/11/13 12:09:30;;;;;;;46.08;19.05;;;9.00;99.90;;;;;;5072217;28;20135;-83
2021/11/13 12:12:15;;;;;;;43.28;18.02;;;9.00;99.90;;;;;;5072467;28;20139;-83
2021/11/13 12:14:42;;;;;;;48.67;20.83;;;9.00;99.90;;;;;;5070527;28;20091;-83
2021/11/13 12:17:32;;;;;;;49.08;21.02;;;9.00;99.90;;;;;;5072494;28;20777;-83
2021/11/13 12:20:08;;;;;;;55.20;21.65;;;9.00;99.90;;;;;;5071832;28;20465;-83
2021/11/13 12:22:43;;;;;;;50.85;22.58;;;9.10;99.90;;;;;;5072098;28;20052;-84
2021/11/13 12:25:19;;;;;;;49.72;22.33;;;9.30;99.90;;;;;;5072287;28;20051;-83
2021/11/13 12:28:21;;;;;;;48.90;22.67;;;9.40;99.90;;;;;;5072118;28;20143;-83
2021/11/13 12:30:58;;;;;;;51.08;23.38;;;9.50;99.90;;;;;;5071676;28;20058;-83
2021/11/13 12:33:24;;;;;;;56.92;21.75;;;9.60;99.90;;;;;;5071791;28;20084;-84
2021/11/13 12:36:06;;;;;;;53.13;21.33;;;9.70;99.90;;;;;;5057979;28;20490;-84
2021/11/13 12:39:00;;;;;;;57.75;22.27;;;9.70;99.90;;;;;;5051770;28;20115;-83
2021/11/13 12:41:43;;;;;;;63.22;23.70;;;9.70;99.90;;;;;;5044683;28;20056;-84
2021/11/13 12:44:12;;;;;;;52.10;20.85;;;9.60;99.90;;;;;;5057854;28;20080;-84
2021/11/13 12:46:50;;;;;;;51.38;21.52;;;9.50;99.90;;;;;;5071544;28;20110;-83
2021/11/13 12:49:23;;;;;;;51.15;22.13;;;9.40;99.90;;;;;;5064051;28;20079;-83